Time;durP1;ratioP1;P1;durP2;ratioP2;P2;SDS_P1;SDS_P2;PMS_P1;PMS_P2;Temp;Humidity;BMP_temperature;BMP_pressure;BME280_temperature;BME280_humidity;BME280_pressure;Samples;Min_cycle;Max_cycle;Signal;HPM_P1;HPM_P2
2022/09/11 00:01:17;;;;;;;7.85;6.70;;;;;;;;;;10199929;28;20073;-64
2022/09/11 00:06:16;;;;;;;9.30;7.18;;;;;;;;;;10198262;28;20081;-65
2022/09/11 00:11:28;;;;;;;9.60;7.43;;;;;;;;;;10199479;28;20030;-65
2022/09/11 00:16:27;;;;;;;8.15;7.15;;;;;;;;;;10198504;28;20046;-64
2022/09/11 00:21:26;;;;;;;8.38;7.03;;;;;;;;;;10199055;28;20529;-64
2022/09/11 00:26:24;;;;;;;9.98;6.97;;;;;;;;;;10198392;28;20080;-64
2022/09/11 00:31:25;;;;;;;8.10;6.75;;;;;;;;;;10198254;28;20069;-64
2022/09/11 00:36:24;;;;;;;11.10;6.97;;;;;;;;;;10198092;28;20061;-64
2022/09/11 00:41:24;;;;;;;9.45;5.85;;;;;;;;;;10179001;28;20527;-64
2022/09/11 00:46:25;;;;;;;10.38;6.35;;;;;;;;;;10198173;28;20074;-64
2022/09/11 00:51:25;;;;;;;7.38;6.65;;;;;;;;;;10195315;28;20057;-64
2022/09/11 00:56:25;;;;;;;6.85;5.65;;;;;;;;;;10197660;28;20046;-65
2022/09/11 01:01:25;;;;;;;7.40;6.65;;;;;;;;;;10196555;28;20045;-64
2022/09/11 01:06:24;;;;;;;7.60;6.40;;;;;;;;;;10196976;28;20072;-64
2022/09/11 01:11:30;;;;;;;10.57;6.80;;;;;;;;;;10197318;28;20522;-64
2022/09/11 01:16:33;;;;;;;9.13;6.18;;;;;;;;;;10196596;28;20061;-65
2022/09/11 01:21:53;;;;;;;6.20;5.53;;;;;;;;;;10179252;28;20061;-64
2022/09/11 01:27:08;;;;;;;8.73;5.97;;;;;;;;;;10147125;28;20085;-64
2022/09/11 01:32:10;;;;;;;8.45;5.80;;;;;;;;;;10194235;28;20042;-65
2022/09/11 01:37:13;;;;;;;6.18;5.28;;;;;;;;;;10178265;28;20050;-64
2022/09/11 01:42:13;;;;;;;8.07;5.70;;;;;;;;;;10178746;28;20053;-64
2022/09/11 01:47:16;;;;;;;9.23;5.38;;;;;;;;;;10177020;28;20104;-62
2022/09/11 01:52:16;;;;;;;9.88;4.88;;;;;;;;;;10192314;28;20503;-62
2022/09/11 01:57:18;;;;;;;5.85;5.25;;;;;;;;;;10195599;28;20052;-62
2022/09/11 02:02:24;;;;;;;6.45;4.97;;;;;;;;;;10192764;28;20050;-62
2022/09/11 02:07:23;;;;;;;5.75;4.72;;;;;;;;;;10193660;28;20546;-62
2022/09/11 02:12:27;;;;;;;5.68;4.53;;;;;;;;;;10193370;28;20057;-61
2022/09/11 02:17:34;;;;;;;6.55;5.10;;;;;;;;;;10195093;28;20053;-62
2022/09/11 02:22:32;;;;;;;6.40;5.20;;;;;;;;;;10193196;28;20052;-61
2022/09/11 02:27:32;;;;;;;5.25;4.65;;;;;;;;;;10195100;28;20073;-62
2022/09/11 02:32:33;;;;;;;7.25;4.45;;;;;;;;;;10176650;28;20052;-62
2022/09/11 02:37:38;;;;;;;5.75;4.07;;;;;;;;;;10192361;28;20050;-62
2022/09/11 02:42:45;;;;;;;7.40;4.90;;;;;;;;;;10194059;28;20069;-62
2022/09/11 02:47:51;;;;;;;5.00;4.22;;;;;;;;;;10192624;28;20088;-63
2022/09/11 02:52:56;;;;;;;5.78;4.40;;;;;;;;;;10194482;28;20057;-62
2022/09/11 02:57:57;;;;;;;5.90;4.55;;;;;;;;;;10199833;28;20042;-62
2022/09/11 03:02:57;;;;;;;7.78;4.70;;;;;;;;;;10200283;28;20056;-62
2022/09/11 03:07:56;;;;;;;4.85;4.30;;;;;;;;;;10199457;28;20097;-62
2022/09/11 03:12:58;;;;;;;8.70;4.90;;;;;;;;;;10199767;28;20045;-62
2022/09/11 03:17:58;;;;;;;7.47;4.05;;;;;;;;;;10199870;28;20507;-63
2022/09/11 03:22:57;;;;;;;7.80;5.38;;;;;;;;;;10199462;28;20061;-63
2022/09/11 03:27:55;;;;;;;3.90;3.55;;;;;;;;;;10199789;28;20076;-62
2022/09/11 03:32:54;;;;;;;4.72;4.05;;;;;;;;;;10199270;28;20050;-63
2022/09/11 03:37:54;;;;;;;6.15;3.75;;;;;;;;;;10201562;28;20041;-63
2022/09/11 03:42:53;;;;;;;7.57;4.20;;;;;;;;;;10197922;28;20081;-62
2022/09/11 03:47:53;;;;;;;4.20;3.85;;;;;;;;;;10197580;28;20068;-61
2022/09/11 03:52:51;;;;;;;6.00;4.88;;;;;;;;;;10198042;28;20046;-62
2022/09/11 03:57:50;;;;;;;4.00;3.55;;;;;;;;;;10200383;28;20511;-62
2022/09/11 04:02:49;;;;;;;4.00;3.60;;;;;;;;;;10197063;28;20049;-62
2022/09/11 04:08:01;;;;;;;4.28;3.70;;;;;;;;;;10195151;28;20062;-63
2022/09/11 04:13:01;;;;;;;4.70;3.88;;;;;;;;;;10197777;28;20045;-62
2022/09/11 04:17:59;;;;;;;7.35;4.05;;;;;;;;;;10197371;28;20045;-62
2022/09/11 04:23:04;;;;;;;;;;;;;;;;;;10197919;28;20046;-62
2022/09/11 04:28:03;;;;;;;5.97;3.97;;;;;;;;;;10197004;28;19928;-62
2022/09/11 04:33:02;;;;;;;4.85;3.60;;;;;;;;;;10197702;28;20050;-62
2022/09/11 04:38:00;;;;;;;6.47;3.70;;;;;;;;;;10196771;28;20515;-62
2022/09/11 04:42:59;;;;;;;6.50;3.90;;;;;;;;;;10196170;28;20046;-63
2022/09/11 04:47:59;;;;;;;8.57;4.10;;;;;;;;;;10197397;28;20081;-62
2022/09/11 04:52:58;;;;;;;5.32;3.28;;;;;;;;;;10196054;28;20046;-62
2022/09/11 04:57:56;;;;;;;7.55;3.65;;;;;;;;;;10196521;28;20050;-62
2022/09/11 05:02:55;;;;;;;5.50;3.20;;;;;;;;;;10195327;28;20053;-62
2022/09/11 05:07:54;;;;;;;7.32;3.50;;;;;;;;;;10196966;28;20101;-62
2022/09/11 05:12:53;;;;;;;6.22;4.22;;;;;;;;;;10194139;28;20057;-62
2022/09/11 05:17:51;;;;;;;5.18;3.50;;;;;;;;;;10194928;28;20060;-61
2022/09/11 05:22:52;;;;;;;4.72;3.42;;;;;;;;;;10195298;28;20060;-62
2022/09/11 05:27:52;;;;;;;7.07;4.50;;;;;;;;;;10194931;28;20100;-62
2022/09/11 05:32:53;;;;;;;4.10;3.70;;;;;;;;;;10192969;28;20058;-62
2022/09/11 05:37:52;;;;;;;9.27;3.50;;;;;;;;;;10195060;28;20542;-63
2022/09/11 05:42:53;;;;;;;7.18;3.70;;;;;;;;;;10191878;28;20050;-62
2022/09/11 05:47:52;;;;;;;6.20;3.78;;;;;;;;;;10192194;28;20096;-62
2022/09/11 05:52:53;;;;;;;6.57;3.45;;;;;;;;;;10192330;28;20046;-62
2022/09/11 05:57:51;;;;;;;4.43;3.85;;;;;;;;;;10192946;28;20057;-63
2022/09/11 06:02:53;;;;;;;4.20;3.70;;;;;;;;;;10175280;28;20411;-62
2022/09/11 06:07:54;;;;;;;;;;;;;;;;;;10190834;28;20090;-63
2022/09/11 06:12:53;;;;;;;9.25;3.85;;;;;;;;;;10163164;28;19947;-62
2022/09/11 06:17:52;;;;;;;7.70;4.20;;;;;;;;;;10192366;28;20086;-61
2022/09/11 06:22:51;;;;;;;3.88;3.00;;;;;;;;;;10192025;28;20060;-61
2022/09/11 06:27:49;;;;;;;6.32;3.55;;;;;;;;;;10193301;28;20172;-62
2022/09/11 06:32:48;;;;;;;9.40;3.85;;;;;;;;;;10178455;28;20095;-62
2022/09/11 06:37:47;;;;;;;3.28;2.95;;;;;;;;;;10182570;28;20109;-61
2022/09/11 06:42:47;;;;;;;6.10;4.45;;;;;;;;;;10190365;28;20065;-62
2022/09/11 06:47:46;;;;;;;6.18;3.55;;;;;;;;;;10172517;28;20089;-62
2022/09/11 06:52:44;;;;;;;3.83;2.80;;;;;;;;;;10189433;28;20500;-62
2022/09/11 06:58:02;;;;;;;6.72;3.08;;;;;;;;;;10170602;28;20479;-61
2022/09/11 07:03:02;;;;;;;4.95;3.30;;;;;;;;;;10183938;28;20088;-61
2022/09/11 07:08:00;;;;;;;11.07;3.95;;;;;;;;;;10187001;28;20701;-60
2022/09/11 07:13:03;;;;;;;7.40;3.42;;;;;;;;;;10186801;28;20064;-61
2022/09/11 07:18:02;;;;;;;6.72;3.20;;;;;;;;;;10175725;28;20058;-61
2022/09/11 07:23:01;;;;;;;5.80;3.13;;;;;;;;;;10173950;28;20061;-60
2022/09/11 07:28:01;;;;;;;12.80;6.80;;;;;;;;;;10190710;28;20090;-62
2022/09/11 07:33:01;;;;;;;4.32;2.80;;;;;;;;;;10191148;28;20057;-62
2022/09/11 07:38:00;;;;;;;6.30;3.10;;;;;;;;;;10174732;28;20061;-61
2022/09/11 07:42:59;;;;;;;6.03;3.33;;;;;;;;;;10177559;28;20054;-60
2022/09/11 07:48:00;;;;;;;4.07;2.13;;;;;;;;;;10181550;28;20062;-62
2022/09/11 07:53:02;;;;;;;4.13;3.72;;;;;;;;;;10198186;28;20048;-61
2022/09/11 07:58:00;;;;;;;5.47;4.78;;;;;;;;;;10198015;28;20050;-62
2022/09/11 08:02:59;;;;;;;4.30;3.80;;;;;;;;;;10198433;28;20369;-62
2022/09/11 08:08:05;;;;;;;6.40;2.80;;;;;;;;;;10196968;28;20101;-61
2022/09/11 08:13:05;;;;;;;4.95;3.78;;;;;;;;;;10195975;28;20578;-60
2022/09/11 08:18:07;;;;;;;5.30;2.88;;;;;;;;;;10197134;28;20069;-62
2022/09/11 08:23:09;;;;;;;6.63;2.90;;;;;;;;;;10179798;28;20057;-61
2022/09/11 08:28:09;;;;;;;2.70;2.20;;;;;;;;;;10179948;28;20049;-59
2022/09/11 08:33:08;;;;;;;6.35;2.40;;;;;;;;;;10196455;28;20053;-62
2022/09/11 08:38:09;;;;;;;6.93;2.83;;;;;;;;;;10180427;28;20420;-61
2022/09/11 08:43:14;;;;;;;3.22;2.30;;;;;;;;;;10195353;28;20053;-61
2022/09/11 08:48:14;;;;;;;4.50;2.10;;;;;;;;;;10192685;28;20162;-61
2022/09/11 08:53:15;;;;;;;3.90;2.83;;;;;;;;;;10175414;28;20069;-62
2022/09/11 08:58:22;;;;;;;14.20;3.85;;;;;;;;;;10150479;28;20160;-62
2022/09/11 09:03:34;;;;;;;3.80;2.80;;;;;;;;;;10161931;28;20082;-62
2022/09/11 09:08:41;;;;;;;3.03;2.27;;;;;;;;;;10149187;28;20093;-61
2022/09/11 09:13:56;;;;;;;2.50;2.30;;;;;;;;;;10149566;28;20078;-62
2022/09/11 09:18:59;;;;;;;5.85;4.75;;;;;;;;;;10131433;28;20473;-62
2022/09/11 09:23:58;;;;;;;26.83;4.88;;;;;;;;;;10147775;28;20085;-60
2022/09/11 09:29:02;;;;;;;6.07;3.92;;;;;;;;;;10149093;28;20074;-62
2022/09/11 09:34:03;;;;;;;11.43;5.63;;;;;;;;;;10152295;28;20089;-63
2022/09/11 09:39:02;;;;;;;7.32;3.88;;;;;;;;;;10137340;28;20082;-62
2022/09/11 09:44:04;;;;;;;7.50;5.32;;;;;;;;;;10153586;28;20061;-61
2022/09/11 09:49:02;;;;;;;4.60;2.80;;;;;;;;;;10155026;28;20169;-62
2022/09/11 09:54:01;;;;;;;6.55;4.55;;;;;;;;;;10155986;28;20150;-60
2022/09/11 09:59:01;;;;;;;11.10;6.18;;;;;;;;;;10155061;28;20092;-62
2022/09/11 10:04:11;;;;;;;10.77;6.97;;;;;;;;;;10154828;28;20089;-62
2022/09/11 10:09:18;;;;;;;10.77;8.30;;;;;;;;;;10153674;28;20090;-62
2022/09/11 10:14:20;;;;;;;12.38;8.60;;;;;;;;;;10155699;28;20077;-62
2022/09/11 10:19:41;;;;;;;5.60;3.30;;;;;;;;;;10154611;28;20077;-63
2022/09/11 10:24:44;;;;;;;8.05;5.50;;;;;;;;;;10154354;28;20050;-63
2022/09/11 10:29:49;;;;;;;6.82;4.22;;;;;;;;;;10154199;28;20092;-63
2022/09/11 10:34:50;;;;;;;10.48;5.65;;;;;;;;;;10155058;28;20084;-63
2022/09/11 10:39:49;;;;;;;8.63;4.32;;;;;;;;;;10154158;28;20050;-63
2022/09/11 10:44:48;;;;;;;4.05;2.75;;;;;;;;;;10153477;28;20081;-62
2022/09/11 10:49:48;;;;;;;3.65;3.20;;;;;;;;;;10153550;28;20085;-63
2022/09/11 10:54:54;;;;;;;2.88;2.08;;;;;;;;;;10153250;28;20054;-63
2022/09/11 11:00:02;;;;;;;5.00;1.48;;;;;;;;;;10154192;28;20046;-62
2022/09/11 11:05:06;;;;;;;2.92;2.42;;;;;;;;;;10152493;28;20057;-63
2022/09/11 11:10:13;;;;;;;2.50;2.28;;;;;;;;;;10153159;28;20488;-62
2022/09/11 11:15:29;;;;;;;8.20;4.80;;;;;;;;;;10153810;28;20074;-63
2022/09/11 11:20:33;;;;;;;3.88;2.60;;;;;;;;;;10161422;28;20050;-63
2022/09/11 11:25:39;;;;;;;1.30;1.20;;;;;;;;;;10160939;28;20078;-63
2022/09/11 11:30:40;;;;;;;3.38;2.67;;;;;;;;;;10161435;28;20074;-65
2022/09/11 11:35:45;;;;;;;3.90;2.97;;;;;;;;;;10160869;28;20081;-64
2022/09/11 11:40:46;;;;;;;4.57;3.15;;;;;;;;;;10160190;28;20085;-63
2022/09/11 11:45:46;;;;;;;5.60;4.55;;;;;;;;;;10161532;28;20321;-64
2022/09/11 11:50:47;;;;;;;2.63;2.40;;;;;;;;;;10160704;28;20089;-63
2022/09/11 11:55:48;;;;;;;3.38;2.13;;;;;;;;;;10158880;28;20508;-63
2022/09/11 12:00:50;;;;;;;3.75;2.08;;;;;;;;;;10160213;28;20042;-63
2022/09/11 12:05:54;;;;;;;6.60;4.35;;;;;;;;;;10160104;28;20428;-64
2022/09/11 12:10:55;;;;;;;6.05;3.53;;;;;;;;;;10160077;28;20481;-62
2022/09/11 12:16:11;;;;;;;4.43;2.08;;;;;;;;;;10158356;28;20054;-63
2022/09/11 12:21:30;;;;;;;5.88;1.70;;;;;;;;;;10160192;28;20468;-64
2022/09/11 12:26:30;;;;;;;5.90;1.60;;;;;;;;;;10159156;28;20061;-64
2022/09/11 12:31:48;;;;;;;2.45;2.03;;;;;;;;;;10157896;28;20614;-64
2022/09/11 12:36:50;;;;;;;4.82;2.90;;;;;;;;;;10159005;28;20050;-65
2022/09/11 12:41:49;;;;;;;3.17;2.58;;;;;;;;;;10158326;28;20249;-64
2022/09/11 12:47:12;;;;;;;7.68;2.83;;;;;;;;;;10157917;28;20086;-63
2022/09/11 12:52:19;;;;;;;4.43;3.08;;;;;;;;;;10159184;28;20077;-63
2022/09/11 12:57:22;;;;;;;8.45;1.52;;;;;;;;;;10195652;28;20074;-62
2022/09/11 13:02:25;;;;;;;4.37;3.37;;;;;;;;;;10196557;28;20081;-63
2022/09/11 13:07:25;;;;;;;1.65;1.38;;;;;;;;;;10194414;28;20133;-63
2022/09/11 13:12:42;;;;;;;2.97;1.60;;;;;;;;;;10196651;28;20058;-64
2022/09/11 13:17:47;;;;;;;1.40;1.23;;;;;;;;;;10194605;28;20042;-64
2022/09/11 13:22:45;;;;;;;5.18;1.98;;;;;;;;;;10196632;28;20046;-65
2022/09/11 13:27:46;;;;;;;3.10;2.00;;;;;;;;;;10195800;28;20487;-65
2022/09/11 13:32:47;;;;;;;1.77;1.65;;;;;;;;;;10191891;28;20044;-65
2022/09/11 13:37:50;;;;;;;3.55;1.70;;;;;;;;;;10174845;28;20091;-64
2022/09/11 13:42:48;;;;;;;3.83;2.05;;;;;;;;;;10193197;28;20073;-64
2022/09/11 13:47:48;;;;;;;6.82;2.03;;;;;;;;;;10155900;28;20432;-64
2022/09/11 13:52:47;;;;;;;4.65;1.27;;;;;;;;;;10175707;28;20530;-65
2022/09/11 13:57:52;;;;;;;1.95;1.75;;;;;;;;;;10194669;28;20681;-65
2022/09/11 14:02:51;;;;;;;6.05;1.90;;;;;;;;;;10194767;28;20483;-64
2022/09/11 14:07:55;;;;;;;2.10;1.27;;;;;;;;;;10193962;28;20074;-64
2022/09/11 14:12:56;;;;;;;2.40;2.05;;;;;;;;;;10193726;28;20073;-64
2022/09/11 14:17:56;;;;;;;2.22;1.63;;;;;;;;;;10194505;28;20086;-64
2022/09/11 14:22:55;;;;;;;2.05;1.30;;;;;;;;;;10193840;28;20050;-63
2022/09/11 14:27:53;;;;;;;3.53;2.33;;;;;;;;;;10195403;28;20050;-65
2022/09/11 14:33:12;;;;;;;2.08;1.75;;;;;;;;;;10218347;28;20077;-65
2022/09/11 14:38:11;;;;;;;2.78;1.63;;;;;;;;;;10234134;28;20119;-65
2022/09/11 14:43:10;;;;;;;4.90;2.28;;;;;;;;;;10233489;28;20053;-65
2022/09/11 14:48:13;;;;;;;2.50;2.15;;;;;;;;;;10201716;28;20556;-65
2022/09/11 14:53:15;;;;;;;1.60;1.40;;;;;;;;;;10200913;28;20076;-64
2022/09/11 14:58:14;;;;;;;2.00;1.10;;;;;;;;;;10206203;28;20408;-64
2022/09/11 15:03:13;;;;;;;2.22;1.40;;;;;;;;;;10209886;28;20057;-64
2022/09/11 15:08:12;;;;;;;2.83;1.25;;;;;;;;;;10207892;28;20089;-64
2022/09/11 15:13:10;;;;;;;4.10;2.83;;;;;;;;;;10204361;28;20073;-65
2022/09/11 15:18:09;;;;;;;2.22;1.73;;;;;;;;;;10204892;28;20049;-66
2022/09/11 15:23:08;;;;;;;3.55;1.98;;;;;;;;;;10206153;28;20050;-64
2022/09/11 15:28:08;;;;;;;3.28;2.75;;;;;;;;;;10206373;28;20045;-65
2022/09/11 15:33:07;;;;;;;2.22;1.60;;;;;;;;;;10205553;28;20074;-65
2022/09/11 15:38:06;;;;;;;2.22;1.38;;;;;;;;;;10205760;28;20050;-65
2022/09/11 15:43:05;;;;;;;2.15;1.75;;;;;;;;;;10204596;28;20053;-65
2022/09/11 15:48:03;;;;;;;3.30;1.98;;;;;;;;;;10205763;28;20061;-65
2022/09/11 15:53:02;;;;;;;1.90;1.20;;;;;;;;;;10205007;28;20583;-64
2022/09/11 15:58:00;;;;;;;1.70;1.58;;;;;;;;;;10206234;28;20042;-65
2022/09/11 16:03:01;;;;;;;3.17;2.00;;;;;;;;;;10203282;28;20037;-64
2022/09/11 16:07:59;;;;;;;6.30;1.10;;;;;;;;;;10199133;28;20475;-64
2022/09/11 16:12:58;;;;;;;3.75;1.65;;;;;;;;;;10196064;28;20534;-65
2022/09/11 16:17:56;;;;;;;3.35;2.40;;;;;;;;;;10199144;28;20073;-64
2022/09/11 16:22:56;;;;;;;7.00;2.40;;;;;;;;;;10197209;28;20066;-65
2022/09/11 16:27:56;;;;;;;9.63;1.73;;;;;;;;;;10197803;28;20081;-65
2022/09/11 16:32:54;;;;;;;7.97;1.92;;;;;;;;;;10195713;28;20066;-65
2022/09/11 16:37:53;;;;;;;8.15;2.33;;;;;;;;;;10196009;28;20468;-65
2022/09/11 16:42:52;;;;;;;4.40;2.95;;;;;;;;;;10197732;28;20076;-65
2022/09/11 16:47:51;;;;;;;6.25;5.47;;;;;;;;;;10195939;28;20503;-65
2022/09/11 16:52:49;;;;;;;11.85;8.77;;;;;;;;;;10197424;28;20754;-66
2022/09/11 16:57:48;;;;;;;56.90;50.85;;;;;;;;;;10194630;28;20407;-65
2022/09/11 17:02:49;;;;;;;65.18;57.85;;;;;;;;;;10197227;28;20042;-66
2022/09/11 17:07:47;;;;;;;50.03;43.05;;;;;;;;;;10196220;28;20097;-64
2022/09/11 17:12:45;;;;;;;20.58;17.00;;;;;;;;;;10196579;28;20077;-65
2022/09/11 17:17:44;;;;;;;17.67;11.70;;;;;;;;;;10195951;28;20049;-66
2022/09/11 17:22:44;;;;;;;5.50;4.90;;;;;;;;;;10195801;28;20100;-65
2022/09/11 17:27:42;;;;;;;9.27;7.38;;;;;;;;;;10196449;28;20073;-65
2022/09/11 17:32:40;;;;;;;25.70;19.40;;;;;;;;;;10195487;28;20107;-65
2022/09/11 17:37:39;;;;;;;21.92;19.63;;;;;;;;;;10176926;28;20050;-65
2022/09/11 17:42:42;;;;;;;7.25;5.43;;;;;;;;;;10195772;28;20081;-65
2022/09/11 17:47:41;;;;;;;11.50;5.43;;;;;;;;;;10195681;28;20080;-66
2022/09/11 17:52:39;;;;;;;48.30;38.38;;;;;;;;;;10195147;28;20077;-65
2022/09/11 17:57:41;;;;;;;15.77;13.73;;;;;;;;;;10194988;28;20500;-65
2022/09/11 18:02:39;;;;;;;6.43;3.13;;;;;;;;;;10194616;28;20042;-63
2022/09/11 18:07:37;;;;;;;5.85;3.70;;;;;;;;;;10194561;28;20090;-65
2022/09/11 18:12:36;;;;;;;3.65;1.63;;;;;;;;;;10194378;28;20074;-65
2022/09/11 18:17:38;;;;;;;4.30;2.17;;;;;;;;;;10194179;28;20045;-65
2022/09/11 18:22:37;;;;;;;3.20;2.15;;;;;;;;;;10194646;28;20053;-66
2022/09/11 18:27:37;;;;;;;6.97;2.58;;;;;;;;;;10192244;28;20076;-64
2022/09/11 18:32:38;;;;;;;4.88;2.40;;;;;;;;;;10194347;28;20073;-64
2022/09/11 18:37:37;;;;;;;5.50;2.83;;;;;;;;;;10194046;28;20053;-65
2022/09/11 18:42:36;;;;;;;3.53;2.28;;;;;;;;;;10192866;28;20088;-65
2022/09/11 18:47:34;;;;;;;3.80;2.13;;;;;;;;;;10193987;28;20092;-65
2022/09/11 18:52:33;;;;;;;3.78;1.90;;;;;;;;;;10192547;28;20070;-65
2022/09/11 18:57:32;;;;;;;3.65;2.38;;;;;;;;;;10192638;28;20073;-64
2022/09/11 19:02:37;;;;;;;7.82;2.50;;;;;;;;;;10191560;28;20077;-65
2022/09/11 19:07:37;;;;;;;8.25;2.30;;;;;;;;;;10192226;28;20078;-64
2022/09/11 19:12:35;;;;;;;3.95;1.92;;;;;;;;;;10191707;28;20503;-65
2022/09/11 19:17:35;;;;;;;6.95;4.13;;;;;;;;;;10192188;28;20533;-65
2022/09/11 19:22:33;;;;;;;6.00;4.25;;;;;;;;;;10192399;28;20061;-64
2022/09/11 19:27:33;;;;;;;7.90;2.17;;;;;;;;;;10192525;28;20077;-65
2022/09/11 19:32:31;;;;;;;4.55;1.88;;;;;;;;;;10191809;28;20076;-64
2022/09/11 19:37:29;;;;;;;7.35;2.13;;;;;;;;;;10194400;28;20054;-68
2022/09/11 19:42:28;;;;;;;5.22;2.92;;;;;;;;;;10199088;28;20076;-65
2022/09/11 19:47:27;;;;;;;8.20;2.50;;;;;;;;;;10199474;28;20158;-65
2022/09/11 19:52:26;;;;;;;2.60;2.05;;;;;;;;;;10160531;28;20518;-65
2022/09/11 19:57:29;;;;;;;4.88;2.30;;;;;;;;;;10166652;28;20045;-65
2022/09/11 20:02:29;;;;;;;4.85;2.30;;;;;;;;;;10198539;28;20096;-65
2022/09/11 20:07:27;;;;;;;4.97;2.53;;;;;;;;;;10199170;28;20073;-65
2022/09/11 20:12:26;;;;;;;5.18;2.47;;;;;;;;;;10198889;28;20169;-65
2022/09/11 20:17:24;;;;;;;3.85;2.35;;;;;;;;;;10197891;28;20064;-66
2022/09/11 20:22:23;;;;;;;3.83;2.78;;;;;;;;;;10196784;28;20062;-65
2022/09/11 20:27:22;;;;;;;4.68;2.33;;;;;;;;;;10197865;28;20053;-65
2022/09/11 20:32:20;;;;;;;2.03;1.60;;;;;;;;;;10196868;28;20089;-65
2022/09/11 20:37:18;;;;;;;2.72;2.10;;;;;;;;;;10198365;28;20076;-64
2022/09/11 20:42:18;;;;;;;7.28;2.15;;;;;;;;;;10197557;28;20049;-64
2022/09/11 20:47:16;;;;;;;2.75;2.10;;;;;;;;;;10196796;28;20073;-65
2022/09/11 20:52:14;;;;;;;2.60;2.10;;;;;;;;;;10197188;28;20069;-65
2022/09/11 20:57:13;;;;;;;3.45;2.05;;;;;;;;;;10197769;28;20069;-64
2022/09/11 21:02:13;;;;;;;3.85;2.20;;;;;;;;;;10195472;28;20053;-64
2022/09/11 21:07:12;;;;;;;6.63;1.92;;;;;;;;;;10194712;28;20057;-64
2022/09/11 21:12:10;;;;;;;5.30;2.10;;;;;;;;;;10193508;28;20084;-64
2022/09/11 21:17:08;;;;;;;4.18;2.72;;;;;;;;;;10195820;28;20038;-66
2022/09/11 21:22:08;;;;;;;4.07;2.58;;;;;;;;;;10195882;28;20069;-66
2022/09/11 21:27:06;;;;;;;6.00;2.00;;;;;;;;;;10195666;28;20054;-66
2022/09/11 21:32:05;;;;;;;5.03;4.50;;;;;;;;;;10195164;28;20081;-66
2022/09/11 21:37:03;;;;;;;5.10;2.58;;;;;;;;;;10196639;28;20038;-67
2022/09/11 21:42:02;;;;;;;3.25;2.65;;;;;;;;;;10195995;28;20050;-68
2022/09/11 21:47:03;;;;;;;4.88;2.45;;;;;;;;;;10195089;28;20085;-69
2022/09/11 21:52:02;;;;;;;3.15;2.20;;;;;;;;;;10191097;28;20074;-67
2022/09/11 21:57:00;;;;;;;4.63;2.70;;;;;;;;;;10190972;28;20080;-67
2022/09/11 22:01:59;;;;;;;2.20;1.80;;;;;;;;;;10191718;28;20065;-68
2022/09/11 22:06:58;;;;;;;4.78;1.50;;;;;;;;;;10195670;28;20062;-67
2022/09/11 22:11:57;;;;;;;4.63;1.67;;;;;;;;;;10194893;28;20045;-68
2022/09/11 22:16:57;;;;;;;3.50;1.35;;;;;;;;;;10195179;28;20069;-68
2022/09/11 22:21:56;;;;;;;3.05;2.10;;;;;;;;;;10194649;28;20065;-67
2022/09/11 22:26:54;;;;;;;5.72;1.13;;;;;;;;;;10194631;28;20053;-68
2022/09/11 22:31:52;;;;;;;2.53;0.90;;;;;;;;;;10194764;28;20042;-67
2022/09/11 22:36:51;;;;;;;2.40;1.30;;;;;;;;;;10194539;28;20080;-67
2022/09/11 22:41:50;;;;;;;3.22;1.15;;;;;;;;;;10199640;28;20038;-67
2022/09/11 22:46:48;;;;;;;3.38;1.20;;;;;;;;;;10201458;28;20046;-68
2022/09/11 22:51:47;;;;;;;1.63;1.52;;;;;;;;;;10201570;28;20153;-68
2022/09/11 22:56:45;;;;;;;2.58;1.10;;;;;;;;;;10201717;28;20053;-68
2022/09/11 23:01:44;;;;;;;2.70;1.50;;;;;;;;;;10201292;28;20042;-67
2022/09/11 23:11:58;;;;;;;1.40;1.30;;;;;;;;;;10200938;28;20050;-66
2022/09/11 23:16:58;;;;;;;2.67;1.92;;;;;;;;;;10205163;28;20487;-67
2022/09/11 23:21:56;;;;;;;1.60;1.50;;;;;;;;;;10201829;28;20415;-68
2022/09/11 23:26:54;;;;;;;2.42;1.88;;;;;;;;;;10202485;28;20093;-66
2022/09/11 23:31:55;;;;;;;2.22;1.58;;;;;;;;;;10201309;28;20046;-67
2022/09/11 23:36:54;;;;;;;4.18;1.60;;;;;;;;;;10201117;28;20073;-68
2022/09/11 23:41:53;;;;;;;1.77;1.60;;;;;;;;;;10204556;28;20461;-67
2022/09/11 23:46:51;;;;;;;11.07;2.15;;;;;;;;;;10211416;28;20046;-68
2022/09/11 23:51:49;;;;;;;2.65;1.50;;;;;;;;;;10222545;28;20038;-67
2022/09/11 23:56:49;;;;;;;1.20;1.10;;;;;;;;;;10223294;28;20046;-67
